sensor_id;sensor_type;location;lat;lon;timestamp;pressure;altitude;pressure_sealevel;temperature;humidity
62111;BME280;48102;47.526;19.072;2023-03-31T03:41:44;100021.09;;;7.52;100.00
62111;BME280;48102;47.526;19.072;2023-03-31T03:44:49;100021.09;;;7.52;100.00
62111;BME280;48102;47.526;19.072;2023-03-31T03:47:51;100012.69;;;7.01;100.00
62111;BME280;48102;47.526;19.072;2023-03-31T03:50:54;100020.91;;;6.92;100.00
62111;BME280;48102;47.526;19.072;2023-03-31T03:53:58;100018.00;;;7.00;100.00
62111;BME280;48102;47.526;19.072;2023-03-31T03:57:01;100009.28;;;6.99;100.00
62111;BME280;48102;47.526;19.072;2023-03-31T04:00:05;100021.66;;;6.96;100.00
62111;BME280;48102;47.526;19.072;2023-03-31T04:03:14;100024.44;;;6.91;100.00
62111;BME280;48102;47.526;19.072;2023-03-31T04:06:17;100025.34;;;6.90;100.00
62111;BME280;48102;47.526;19.072;2023-03-31T04:09:19;100022.97;;;6.84;100.00
62111;BME280;48102;47.526;19.072;2023-03-31T04:12:22;100020.37;;;6.84;100.00
62111;BME280;48102;47.526;19.072;2023-03-31T04:15:25;100017.06;;;6.79;100.00
62111;BME280;48102;47.526;19.072;2023-03-31T04:18:28;100013.78;;;6.74;100.00
62111;BME280;48102;47.526;19.072;2023-03-31T04:21:30;100008.38;;;6.78;100.00
62111;BME280;48102;47.526;19.072;2023-03-31T04:24:36;100004.66;;;6.84;100.00
62111;BME280;48102;47.526;19.072;2023-03-31T04:27:44;100002.81;;;6.86;100.00
62111;BME280;48102;47.526;19.072;2023-03-31T04:30:52;100003.81;;;6.84;100.00
62111;BME280;48102;47.526;19.072;2023-03-31T04:33:56;100008.31;;;6.80;100.00
62111;BME280;48102;47.526;19.072;2023-03-31T04:37:04;100008.31;;;6.80;100.00
62111;BME280;48102;47.526;19.072;2023-03-31T04:40:07;99993.81;;;6.71;100.00
62111;BME280;48102;47.526;19.072;2023-03-31T04:43:11;100002.13;;;6.81;100.00
62111;BME280;48102;47.526;19.072;2023-03-31T04:46:14;99995.94;;;6.84;100.00
62111;BME280;48102;47.526;19.072;2023-03-31T04:49:17;99989.84;;;6.83;100.00
62111;BME280;48102;47.526;19.072;2023-03-31T04:52:20;99995.75;;;6.88;100.00
62111;BME280;48102;47.526;19.072;2023-03-31T04:55:23;99996.50;;;6.92;100.00
62111;BME280;48102;47.526;19.072;2023-03-31T04:58:26;99999.69;;;6.98;100.00
62111;BME280;48102;47.526;19.072;2023-03-31T05:01:30;100004.22;;;7.17;100.00
62111;BME280;48102;47.526;19.072;2023-03-31T05:04:34;99993.37;;;7.24;100.00
62111;BME280;48102;47.526;19.072;2023-03-31T05:07:38;99987.72;;;7.35;100.00
62111;BME280;48102;47.526;19.072;2023-03-31T05:10:40;99988.56;;;7.56;100.00
62111;BME280;48102;47.526;19.072;2023-03-31T05:13:43;99979.28;;;7.68;100.00
62111;BME280;48102;47.526;19.072;2023-03-31T05:16:46;99986.50;;;7.83;100.00
62111;BME280;48102;47.526;19.072;2023-03-31T05:19:49;99986.09;;;7.92;100.00
62111;BME280;48102;47.526;19.072;2023-03-31T05:22:52;99976.03;;;8.02;100.00
62111;BME280;48102;47.526;19.072;2023-03-31T05:25:54;99978.09;;;8.14;100.00
62111;BME280;48102;47.526;19.072;2023-03-31T05:28:57;99979.97;;;8.31;100.00
62111;BME280;48102;47.526;19.072;2023-03-31T05:32:00;99984.25;;;8.52;100.00
62111;BME280;48102;47.526;19.072;2023-03-31T05:35:03;99974.72;;;8.69;100.00
62111;BME280;48102;47.526;19.072;2023-03-31T05:38:06;99979.06;;;8.87;100.00
62111;BME280;48102;47.526;19.072;2023-03-31T05:41:09;99981.00;;;9.20;100.00
62111;BME280;48102;47.526;19.072;2023-03-31T05:44:13;99980.34;;;9.49;100.00
62111;BME280;48102;47.526;19.072;2023-03-31T05:47:16;99978.28;;;9.89;100.00
62111;BME280;48102;47.526;19.072;2023-03-31T05:50:18;99974.50;;;10.28;100.00
62111;BME280;48102;47.526;19.072;2023-03-31T05:53:21;99961.56;;;10.71;100.00
62111;BME280;48102;47.526;19.072;2023-03-31T05:56:24;99969.63;;;11.14;100.00
62111;BME280;48102;47.526;19.072;2023-03-31T05:59:28;99960.53;;;11.49;100.00
62111;BME280;48102;47.526;19.072;2023-03-31T06:02:32;99961.91;;;11.85;100.00
62111;BME280;48102;47.526;19.072;2023-03-31T06:05:35;99960.66;;;12.19;100.00
62111;BME280;48102;47.526;19.072;2023-03-31T06:08:38;99954.69;;;12.44;100.00
62111;BME280;48102;47.526;19.072;2023-03-31T06:11:41;99958.97;;;12.60;100.00
62111;BME280;48102;47.526;19.072;2023-03-31T06:14:43;99954.34;;;12.63;100.00
62111;BME280;48102;47.526;19.072;2023-03-31T06:17:46;99962.16;;;12.65;100.00
62111;BME280;48102;47.526;19.072;2023-03-31T06:20:50;99958.34;;;12.83;100.00
62111;BME280;48102;47.526;19.072;2023-03-31T06:23:53;99953.66;;;13.01;100.00
62111;BME280;48102;47.526;19.072;2023-03-31T06:26:57;99955.56;;;13.12;100.00
62111;BME280;48102;47.526;19.072;2023-03-31T06:30:02;99958.88;;;13.15;100.00
62111;BME280;48102;47.526;19.072;2023-03-31T06:33:05;99965.53;;;13.35;100.00
62111;BME280;48102;47.526;19.072;2023-03-31T06:36:09;99955.25;;;13.43;100.00
62111;BME280;48102;47.526;19.072;2023-03-31T06:39:14;99948.19;;;13.57;100.00
62111;BME280;48102;47.526;19.072;2023-03-31T06:42:17;99958.66;;;13.58;100.00
62111;BME280;48102;47.526;19.072;2023-03-31T06:45:20;99954.00;;;13.62;100.00
62111;BME280;48102;47.526;19.072;2023-03-31T06:48:23;99954.97;;;13.61;100.00
62111;BME280;48102;47.526;19.072;2023-03-31T06:51:26;99944.69;;;13.69;100.00
62111;BME280;48102;47.526;19.072;2023-03-31T06:54:32;99951.75;;;13.81;100.00
62111;BME280;48102;47.526;19.072;2023-03-31T06:57:35;99950.91;;;13.80;100.00
62111;BME280;48102;47.526;19.072;2023-03-31T07:00:38;99942.31;;;13.90;100.00
62111;BME280;48102;47.526;19.072;2023-03-31T07:03:42;99946.88;;;14.00;100.00
62111;BME280;48102;47.526;19.072;2023-03-31T07:06:45;99948.25;;;14.06;100.00
62111;BME280;48102;47.526;19.072;2023-03-31T07:09:48;99942.19;;;14.29;100.00
62111;BME280;48102;47.526;19.072;2023-03-31T07:12:51;99939.50;;;14.55;100.00
62111;BME280;48102;47.526;19.072;2023-03-31T07:15:54;99947.87;;;14.97;100.00
62111;BME280;48102;47.526;19.072;2023-03-31T07:18:58;99945.94;;;15.23;98.78
62111;BME280;48102;47.526;19.072;2023-03-31T07:22:00;99941.78;;;15.54;99.51
62111;BME280;48102;47.526;19.072;2023-03-31T07:25:03;99948.69;;;15.56;98.54
62111;BME280;48102;47.526;19.072;2023-03-31T07:28:06;99938.38;;;15.76;98.52
62111;BME280;48102;47.526;19.072;2023-03-31T07:31:11;99931.34;;;15.75;93.36
62111;BME280;48102;47.526;19.072;2023-03-31T07:34:14;99930.53;;;15.86;90.15
62111;BME280;48102;47.526;19.072;2023-03-31T07:37:17;99932.06;;;15.66;94.60
62111;BME280;48102;47.526;19.072;2023-03-31T07:40:25;99924.00;;;15.67;97.50
62111;BME280;48102;47.526;19.072;2023-03-31T07:43:29;99923.28;;;15.76;99.13
62111;BME280;48102;47.526;19.072;2023-03-31T07:47:10;99928.22;;;15.92;99.33
62111;BME280;48102;47.526;19.072;2023-03-31T07:50:14;99922.66;;;15.84;98.92
62111;BME280;48102;47.526;19.072;2023-03-31T07:53:18;99919.31;;;15.93;100.00
62111;BME280;48102;47.526;19.072;2023-03-31T07:56:23;99906.00;;;16.16;99.53
62111;BME280;48102;47.526;19.072;2023-03-31T07:59:28;99907.63;;;16.39;94.54
62111;BME280;48102;47.526;19.072;2023-03-31T08:02:32;99906.47;;;16.64;95.01
62111;BME280;48102;47.526;19.072;2023-03-31T08:05:35;99902.78;;;16.88;94.38
62111;BME280;48102;47.526;19.072;2023-03-31T08:08:37;99905.56;;;16.97;94.00
62111;BME280;48102;47.526;19.072;2023-03-31T08:11:44;99901.84;;;16.89;93.19
62111;BME280;48102;47.526;19.072;2023-03-31T08:14:49;99900.19;;;16.76;92.76
62111;BME280;48102;47.526;19.072;2023-03-31T08:17:52;99890.72;;;17.04;94.27
62111;BME280;48102;47.526;19.072;2023-03-31T08:20:55;99892.56;;;17.04;91.66
62111;BME280;48102;47.526;19.072;2023-03-31T08:23:57;99883.06;;;16.90;94.64
62111;BME280;48102;47.526;19.072;2023-03-31T08:27:00;99879.78;;;16.54;94.90
62111;BME280;48102;47.526;19.072;2023-03-31T08:30:04;99874.28;;;16.35;96.43
62111;BME280;48102;47.526;19.072;2023-03-31T08:33:08;99880.72;;;16.21;97.77
62111;BME280;48102;47.526;19.072;2023-03-31T08:36:11;99870.31;;;16.18;99.12
62111;BME280;48102;47.526;19.072;2023-03-31T08:39:15;99856.84;;;15.99;98.04
62111;BME280;48102;47.526;19.072;2023-03-31T08:42:40;99857.88;;;16.19;98.95
62111;BME280;48102;47.526;19.072;2023-03-31T08:45:42;99844.31;;;16.33;95.57
62111;BME280;48102;47.526;19.072;2023-03-31T08:48:50;99838.88;;;16.35;95.96
62111;BME280;48102;47.526;19.072;2023-03-31T08:51:58;99831.09;;;16.43;96.50
62111;BME280;48102;47.526;19.072;2023-03-31T08:55:06;99824.03;;;16.32;95.44
62111;BME280;48102;47.526;19.072;2023-03-31T08:59:26;99808.34;;;16.96;94.35
62111;BME280;48102;47.526;19.072;2023-03-31T09:05:59;99810.19;;;16.49;92.77
62111;BME280;48102;47.526;19.072;2023-03-31T09:09:08;99801.94;;;16.52;91.30
62111;BME280;48102;47.526;19.072;2023-03-31T09:16:27;99802.53;;;16.56;91.92
62111;BME280;48102;47.526;19.072;2023-03-31T09:19:34;99796.78;;;16.72;92.57
62111;BME280;48102;47.526;19.072;2023-03-31T09:22:43;99791.34;;;16.73;89.39
62111;BME280;48102;47.526;19.072;2023-03-31T09:25:48;99790.13;;;16.98;90.50
62111;BME280;48102;47.526;19.072;2023-03-31T09:28:52;99782.28;;;16.97;87.60
62111;BME280;48102;47.526;19.072;2023-03-31T09:32:20;99784.28;;;17.35;87.96
62111;BME280;48102;47.526;19.072;2023-03-31T09:35:25;99779.06;;;17.64;87.35
62111;BME280;48102;47.526;19.072;2023-03-31T09:38:28;99779.28;;;17.42;86.17
62111;BME280;48102;47.526;19.072;2023-03-31T09:41:31;99770.78;;;17.27;87.46
62111;BME280;48102;47.526;19.072;2023-03-31T09:44:42;99771.28;;;17.42;93.39
62111;BME280;48102;47.526;19.072;2023-03-31T09:47:50;99758.97;;;17.50;88.79
62111;BME280;48102;47.526;19.072;2023-03-31T09:50:57;99763.13;;;17.43;89.10
62111;BME280;48102;47.526;19.072;2023-03-31T09:54:21;99759.56;;;17.54;90.35
62111;BME280;48102;47.526;19.072;2023-03-31T10:00:35;99745.25;;;17.55;91.03
62111;BME280;48102;47.526;19.072;2023-03-31T10:03:52;99738.78;;;18.17;87.20
62111;BME280;48102;47.526;19.072;2023-03-31T10:06:55;99723.62;;;18.47;81.24
62111;BME280;48102;47.526;19.072;2023-03-31T10:09:59;99725.56;;;18.54;77.45
62111;BME280;48102;47.526;19.072;2023-03-31T10:13:07;99718.16;;;18.48;77.04
62111;BME280;48102;47.526;19.072;2023-03-31T10:16:14;99714.25;;;18.14;72.76
62111;BME280;48102;47.526;19.072;2023-03-31T10:19:27;99704.53;;;18.42;75.28
62111;BME280;48102;47.526;19.072;2023-03-31T10:22:42;99704.59;;;18.89;70.40
62111;BME280;48102;47.526;19.072;2023-03-31T10:25:46;99693.78;;;18.90;68.10
62111;BME280;48102;47.526;19.072;2023-03-31T10:28:50;99700.81;;;18.91;73.06
62111;BME280;48102;47.526;19.072;2023-03-31T10:31:54;99675.63;;;18.94;66.11
62111;BME280;48102;47.526;19.072;2023-03-31T10:35:07;99681.31;;;19.18;67.26
62111;BME280;48102;47.526;19.072;2023-03-31T10:38:14;99677.31;;;18.95;65.75
62111;BME280;48102;47.526;19.072;2023-03-31T10:41:20;99678.97;;;19.05;68.41
62111;BME280;48102;47.526;19.072;2023-03-31T10:44:34;99679.22;;;18.65;68.08
62111;BME280;48102;47.526;19.072;2023-03-31T10:47:39;99678.53;;;18.53;68.72
62111;BME280;48102;47.526;19.072;2023-03-31T10:50:42;99670.69;;;18.42;68.59
62111;BME280;48102;47.526;19.072;2023-03-31T10:53:47;99665.63;;;18.39;61.98
62111;BME280;48102;47.526;19.072;2023-03-31T10:57:10;99666.03;;;18.54;65.62
62111;BME280;48102;47.526;19.072;2023-03-31T11:10:54;99648.81;;;19.23;64.56
62111;BME280;48102;47.526;19.072;2023-03-31T11:28:22;99625.66;;;20.83;58.28
62111;BME280;48102;47.526;19.072;2023-03-31T11:31:51;99614.06;;;20.74;55.53
62111;BME280;48102;47.526;19.072;2023-03-31T11:35:18;99600.03;;;21.22;53.82
62111;BME280;48102;47.526;19.072;2023-03-31T11:39:24;99589.94;;;21.83;50.86
62111;BME280;48102;47.526;19.072;2023-03-31T11:42:57;99573.00;;;22.07;50.43
62111;BME280;48102;47.526;19.072;2023-03-31T11:46:15;99557.56;;;21.85;50.63
62111;BME280;48102;47.526;19.072;2023-03-31T11:49:31;99546.72;;;20.95;51.86
62111;BME280;48102;47.526;19.072;2023-03-31T11:52:44;99537.13;;;20.84;54.01
62111;BME280;48102;47.526;19.072;2023-03-31T11:55:52;99532.12;;;20.97;54.11
62111;BME280;48102;47.526;19.072;2023-03-31T11:58:58;99528.84;;;21.20;52.60
62111;BME280;48102;47.526;19.072;2023-03-31T12:05:45;99532.47;;;20.94;53.26
62111;BME280;48102;47.526;19.072;2023-03-31T12:12:17;99510.28;;;20.68;54.58
62111;BME280;48102;47.526;19.072;2023-03-31T12:15:26;99510.03;;;20.95;53.94
62111;BME280;48102;47.526;19.072;2023-03-31T12:18:35;99515.44;;;21.12;51.55
62111;BME280;48102;47.526;19.072;2023-03-31T12:21:43;99509.75;;;21.15;52.20
62111;BME280;48102;47.526;19.072;2023-03-31T12:24:51;99499.09;;;21.72;50.22
62111;BME280;48102;47.526;19.072;2023-03-31T12:27:54;99488.53;;;21.70;50.43
62111;BME280;48102;47.526;19.072;2023-03-31T12:30:59;99487.31;;;22.05;49.41
62111;BME280;48102;47.526;19.072;2023-03-31T12:34:11;99486.16;;;22.64;49.18
62111;BME280;48102;47.526;19.072;2023-03-31T12:41:31;99468.59;;;22.84;47.05
62111;BME280;48102;47.526;19.072;2023-03-31T12:44:58;99463.66;;;22.96;48.32
62111;BME280;48102;47.526;19.072;2023-03-31T12:48:14;99470.69;;;24.03;45.04
62111;BME280;48102;47.526;19.072;2023-03-31T12:51:58;99455.72;;;23.71;45.85
62111;BME280;48102;47.526;19.072;2023-03-31T13:09:04;99415.06;;;31.12;30.71
62111;BME280;48102;47.526;19.072;2023-03-31T13:12:14;99420.09;;;28.35;34.58
62111;BME280;48102;47.526;19.072;2023-03-31T13:15:17;99407.78;;;26.60;37.58
62111;BME280;48102;47.526;19.072;2023-03-31T13:18:21;99400.69;;;28.32;34.82
62111;BME280;48102;47.526;19.072;2023-03-31T13:21:24;99402.91;;;30.18;31.76
62111;BME280;48102;47.526;19.072;2023-03-31T13:24:29;99372.38;;;29.61;32.15
62111;BME280;48102;47.526;19.072;2023-03-31T13:27:32;99374.84;;;30.06;32.36
62111;BME280;48102;47.526;19.072;2023-03-31T13:33:43;99349.59;;;26.64;38.11
62111;BME280;48102;47.526;19.072;2023-03-31T13:44:31;99331.47;;;23.00;43.07
62111;BME280;48102;47.526;19.072;2023-03-31T13:48:22;99324.88;;;22.57;44.08
62111;BME280;48102;47.526;19.072;2023-03-31T13:51:36;99311.75;;;21.61;47.39
62111;BME280;48102;47.526;19.072;2023-03-31T13:58:49;99292.78;;;20.90;49.97
62111;BME280;48102;47.526;19.072;2023-03-31T14:11:40;99289.03;;;20.42;49.89
62111;BME280;48102;47.526;19.072;2023-03-31T14:14:43;99280.31;;;20.32;49.13
62111;BME280;48102;47.526;19.072;2023-03-31T14:17:46;99273.84;;;19.84;49.69
62111;BME280;48102;47.526;19.072;2023-03-31T14:20:57;99270.13;;;19.43;51.98
62111;BME280;48102;47.526;19.072;2023-03-31T14:37:15;99217.94;;;30.73;29.83
62111;BME280;48102;47.526;19.072;2023-03-31T14:40:23;99214.63;;;30.94;28.22
62111;BME280;48102;47.526;19.072;2023-03-31T14:43:29;99205.12;;;30.62;28.67
62111;BME280;48102;47.526;19.072;2023-03-31T14:46:38;99214.69;;;29.62;28.12
62111;BME280;48102;47.526;19.072;2023-03-31T14:49:41;99199.19;;;28.83;29.70
62111;BME280;48102;47.526;19.072;2023-03-31T14:52:51;99196.31;;;28.21;30.96
62111;BME280;48102;47.526;19.072;2023-03-31T14:56:01;99199.09;;;29.14;30.18
62111;BME280;48102;47.526;19.072;2023-03-31T14:59:05;99184.66;;;30.06;29.17
62111;BME280;48102;47.526;19.072;2023-03-31T15:02:15;99192.94;;;29.44;29.33
62111;BME280;48102;47.526;19.072;2023-03-31T15:08:23;99184.78;;;24.72;37.21
62111;BME280;48102;47.526;19.072;2023-03-31T15:11:27;99187.66;;;23.49;39.61
62111;BME280;48102;47.526;19.072;2023-03-31T15:14:34;99182.44;;;22.88;41.01
62111;BME280;48102;47.526;19.072;2023-03-31T15:17:42;99180.50;;;22.44;43.58
62111;BME280;48102;47.526;19.072;2023-03-31T15:20:47;99180.63;;;23.33;42.30
62111;BME280;48102;47.526;19.072;2023-03-31T15:23:50;99181.44;;;24.98;39.12
